sensor_id;sensor_type;location;lat;lon;timestamp;P1;durP1;ratioP1;P2;durP2;ratioP2
60610;SDS011;46439;51.164;13.572;2023-04-25T00:01:47;4.30;;;2.90;;
60610;SDS011;46439;51.164;13.572;2023-04-25T00:04:15;3.80;;;2.80;;
60610;SDS011;46439;51.164;13.572;2023-04-25T00:06:44;4.60;;;2.90;;
60610;SDS011;46439;51.164;13.572;2023-04-25T00:09:13;5.90;;;3.10;;
60610;SDS011;46439;51.164;13.572;2023-04-25T00:11:41;5.90;;;3.10;;
60610;SDS011;46439;51.164;13.572;2023-04-25T00:14:10;3.60;;;3.00;;
60610;SDS011;46439;51.164;13.572;2023-04-25T00:16:39;4.20;;;2.90;;
60610;SDS011;46439;51.164;13.572;2023-04-25T00:19:10;2.60;;;2.40;;
60610;SDS011;46439;51.164;13.572;2023-04-25T00:21:40;5.60;;;2.70;;
60610;SDS011;46439;51.164;13.572;2023-04-25T00:24:08;3.20;;;2.50;;
60610;SDS011;46439;51.164;13.572;2023-04-25T00:26:37;3.90;;;2.90;;
60610;SDS011;46439;51.164;13.572;2023-04-25T00:29:05;5.20;;;2.90;;
60610;SDS011;46439;51.164;13.572;2023-04-25T00:31:34;4.30;;;3.00;;
60610;SDS011;46439;51.164;13.572;2023-04-25T00:34:03;3.40;;;2.50;;
60610;SDS011;46439;51.164;13.572;2023-04-25T00:36:32;4.30;;;2.80;;
60610;SDS011;46439;51.164;13.572;2023-04-25T00:39:00;3.90;;;2.80;;
60610;SDS011;46439;51.164;13.572;2023-04-25T00:41:33;5.30;;;3.30;;
60610;SDS011;46439;51.164;13.572;2023-04-25T00:44:03;4.20;;;3.00;;
60610;SDS011;46439;51.164;13.572;2023-04-25T00:46:33;3.50;;;2.70;;
60610;SDS011;46439;51.164;13.572;2023-04-25T00:49:03;5.00;;;3.20;;
60610;SDS011;46439;51.164;13.572;2023-04-25T00:51:31;5.30;;;3.20;;
60610;SDS011;46439;51.164;13.572;2023-04-25T00:54:01;5.70;;;3.00;;
60610;SDS011;46439;51.164;13.572;2023-04-25T00:56:30;5.50;;;3.10;;
60610;SDS011;46439;51.164;13.572;2023-04-25T00:58:58;6.40;;;3.10;;
60610;SDS011;46439;51.164;13.572;2023-04-25T01:01:27;5.10;;;3.10;;
60610;SDS011;46439;51.164;13.572;2023-04-25T01:03:58;4.40;;;3.00;;
60610;SDS011;46439;51.164;13.572;2023-04-25T01:06:27;4.00;;;2.80;;
60610;SDS011;46439;51.164;13.572;2023-04-25T01:08:56;5.20;;;2.90;;
60610;SDS011;46439;51.164;13.572;2023-04-25T01:11:26;4.70;;;2.80;;
60610;SDS011;46439;51.164;13.572;2023-04-25T01:13:54;5.70;;;3.10;;
60610;SDS011;46439;51.164;13.572;2023-04-25T01:16:23;3.60;;;2.80;;
60610;SDS011;46439;51.164;13.572;2023-04-25T01:18:51;4.90;;;2.90;;
60610;SDS011;46439;51.164;13.572;2023-04-25T01:21:20;4.40;;;2.80;;
60610;SDS011;46439;51.164;13.572;2023-04-25T01:23:49;4.60;;;3.30;;
60610;SDS011;46439;51.164;13.572;2023-04-25T01:26:18;4.30;;;3.00;;
60610;SDS011;46439;51.164;13.572;2023-04-25T01:28:47;5.70;;;3.20;;
60610;SDS011;46439;51.164;13.572;2023-04-25T01:31:16;5.00;;;3.00;;
60610;SDS011;46439;51.164;13.572;2023-04-25T01:33:46;4.80;;;3.10;;
60610;SDS011;46439;51.164;13.572;2023-04-25T01:36:14;5.80;;;3.30;;
60610;SDS011;46439;51.164;13.572;2023-04-25T01:38:44;4.40;;;3.00;;
60610;SDS011;46439;51.164;13.572;2023-04-25T01:41:14;4.70;;;3.10;;
60610;SDS011;46439;51.164;13.572;2023-04-25T01:43:44;5.40;;;3.00;;
60610;SDS011;46439;51.164;13.572;2023-04-25T01:46:13;5.30;;;3.40;;
60610;SDS011;46439;51.164;13.572;2023-04-25T01:48:41;5.00;;;3.10;;
60610;SDS011;46439;51.164;13.572;2023-04-25T01:51:09;5.30;;;3.30;;
60610;SDS011;46439;51.164;13.572;2023-04-25T01:53:38;4.10;;;2.90;;
60610;SDS011;46439;51.164;13.572;2023-04-25T01:56:08;4.90;;;3.40;;
60610;SDS011;46439;51.164;13.572;2023-04-25T01:58:36;3.10;;;2.70;;
60610;SDS011;46439;51.164;13.572;2023-04-25T02:01:05;3.70;;;2.90;;
60610;SDS011;46439;51.164;13.572;2023-04-25T02:03:33;5.70;;;2.90;;
60610;SDS011;46439;51.164;13.572;2023-04-25T02:06:03;9.90;;;3.70;;
60610;SDS011;46439;51.164;13.572;2023-04-25T02:08:31;4.90;;;3.00;;
60610;SDS011;46439;51.164;13.572;2023-04-25T02:11:00;4.60;;;3.20;;
60610;SDS011;46439;51.164;13.572;2023-04-25T02:13:30;4.90;;;3.40;;
60610;SDS011;46439;51.164;13.572;2023-04-25T02:16:00;4.80;;;3.40;;
60610;SDS011;46439;51.164;13.572;2023-04-25T02:18:28;5.30;;;3.40;;
60610;SDS011;46439;51.164;13.572;2023-04-25T02:20:58;4.20;;;3.20;;
60610;SDS011;46439;51.164;13.572;2023-04-25T02:23:27;5.90;;;3.00;;
60610;SDS011;46439;51.164;13.572;2023-04-25T02:25:57;4.10;;;3.10;;
60610;SDS011;46439;51.164;13.572;2023-04-25T02:28:25;5.60;;;3.30;;
60610;SDS011;46439;51.164;13.572;2023-04-25T02:30:53;4.80;;;3.30;;
60610;SDS011;46439;51.164;13.572;2023-04-25T02:33:22;5.50;;;3.90;;
60610;SDS011;46439;51.164;13.572;2023-04-25T02:35:50;7.10;;;3.90;;
60610;SDS011;46439;51.164;13.572;2023-04-25T02:38:19;7.90;;;3.70;;
60610;SDS011;46439;51.164;13.572;2023-04-25T02:40:47;6.40;;;3.70;;
60610;SDS011;46439;51.164;13.572;2023-04-25T02:43:16;8.50;;;4.00;;
60610;SDS011;46439;51.164;13.572;2023-04-25T02:45:44;6.80;;;3.70;;
60610;SDS011;46439;51.164;13.572;2023-04-25T02:48:12;7.00;;;4.00;;
60610;SDS011;46439;51.164;13.572;2023-04-25T02:50:41;6.00;;;3.70;;
60610;SDS011;46439;51.164;13.572;2023-04-25T02:53:09;8.70;;;4.10;;
60610;SDS011;46439;51.164;13.572;2023-04-25T02:55:38;7.90;;;3.80;;
60610;SDS011;46439;51.164;13.572;2023-04-25T02:58:07;5.40;;;3.70;;
60610;SDS011;46439;51.164;13.572;2023-04-25T03:00:35;6.20;;;3.40;;
60610;SDS011;46439;51.164;13.572;2023-04-25T03:03:03;7.90;;;3.50;;
60610;SDS011;46439;51.164;13.572;2023-04-25T03:05:32;6.40;;;3.50;;
60610;SDS011;46439;51.164;13.572;2023-04-25T03:08:01;5.80;;;3.70;;
60610;SDS011;46439;51.164;13.572;2023-04-25T03:10:29;5.10;;;3.40;;
60610;SDS011;46439;51.164;13.572;2023-04-25T03:12:58;6.30;;;3.70;;
60610;SDS011;46439;51.164;13.572;2023-04-25T03:15:27;5.50;;;3.60;;
60610;SDS011;46439;51.164;13.572;2023-04-25T03:17:55;6.80;;;3.70;;
60610;SDS011;46439;51.164;13.572;2023-04-25T03:20:23;8.90;;;4.40;;
60610;SDS011;46439;51.164;13.572;2023-04-25T03:22:52;8.00;;;4.00;;
60610;SDS011;46439;51.164;13.572;2023-04-25T03:25:21;9.20;;;5.00;;
60610;SDS011;46439;51.164;13.572;2023-04-25T03:27:49;6.40;;;4.00;;
60610;SDS011;46439;51.164;13.572;2023-04-25T03:30:17;6.70;;;3.80;;
60610;SDS011;46439;51.164;13.572;2023-04-25T03:32:46;5.60;;;3.60;;
60610;SDS011;46439;51.164;13.572;2023-04-25T03:35:15;7.00;;;4.20;;
60610;SDS011;46439;51.164;13.572;2023-04-25T03:37:43;7.30;;;4.00;;
60610;SDS011;46439;51.164;13.572;2023-04-25T03:40:12;7.90;;;4.00;;
60610;SDS011;46439;51.164;13.572;2023-04-25T03:42:40;6.90;;;3.90;;
60610;SDS011;46439;51.164;13.572;2023-04-25T03:45:09;6.00;;;3.80;;
60610;SDS011;46439;51.164;13.572;2023-04-25T03:47:38;8.80;;;4.20;;
60610;SDS011;46439;51.164;13.572;2023-04-25T03:50:07;7.60;;;4.10;;
60610;SDS011;46439;51.164;13.572;2023-04-25T03:52:36;12.40;;;6.50;;
60610;SDS011;46439;51.164;13.572;2023-04-25T03:55:06;10.30;;;5.90;;
60610;SDS011;46439;51.164;13.572;2023-04-25T03:57:35;10.20;;;5.30;;
60610;SDS011;46439;51.164;13.572;2023-04-25T04:00:04;7.70;;;4.90;;
60610;SDS011;46439;51.164;13.572;2023-04-25T04:02:34;7.30;;;4.70;;
60610;SDS011;46439;51.164;13.572;2023-04-25T04:05:04;7.30;;;4.00;;
60610;SDS011;46439;51.164;13.572;2023-04-25T04:07:33;10.70;;;5.70;;
60610;SDS011;46439;51.164;13.572;2023-04-25T04:10:07;10.70;;;6.10;;
60610;SDS011;46439;51.164;13.572;2023-04-25T04:12:36;10.40;;;5.80;;
60610;SDS011;46439;51.164;13.572;2023-04-25T04:15:06;8.00;;;5.20;;
60610;SDS011;46439;51.164;13.572;2023-04-25T04:17:36;14.30;;;6.00;;
60610;SDS011;46439;51.164;13.572;2023-04-25T04:20:05;9.20;;;4.90;;
60610;SDS011;46439;51.164;13.572;2023-04-25T04:22:35;8.50;;;4.10;;
60610;SDS011;46439;51.164;13.572;2023-04-25T04:25:04;8.20;;;5.10;;
60610;SDS011;46439;51.164;13.572;2023-04-25T04:27:34;11.50;;;5.70;;
60610;SDS011;46439;51.164;13.572;2023-04-25T04:30:03;17.40;;;8.00;;
60610;SDS011;46439;51.164;13.572;2023-04-25T04:32:33;18.30;;;8.10;;
60610;SDS011;46439;51.164;13.572;2023-04-25T04:35:04;22.70;;;10.10;;
60610;SDS011;46439;51.164;13.572;2023-04-25T04:37:35;9.60;;;6.20;;
60610;SDS011;46439;51.164;13.572;2023-04-25T04:40:05;10.70;;;5.60;;
60610;SDS011;46439;51.164;13.572;2023-04-25T04:42:35;11.50;;;6.40;;
60610;SDS011;46439;51.164;13.572;2023-04-25T04:45:05;12.20;;;6.70;;
60610;SDS011;46439;51.164;13.572;2023-04-25T04:47:35;13.00;;;5.80;;
60610;SDS011;46439;51.164;13.572;2023-04-25T04:50:04;14.00;;;7.20;;
60610;SDS011;46439;51.164;13.572;2023-04-25T04:52:36;12.30;;;5.30;;
60610;SDS011;46439;51.164;13.572;2023-04-25T04:55:06;9.70;;;5.30;;
60610;SDS011;46439;51.164;13.572;2023-04-25T04:57:35;7.00;;;4.40;;
60610;SDS011;46439;51.164;13.572;2023-04-25T05:00:06;10.90;;;5.70;;
60610;SDS011;46439;51.164;13.572;2023-04-25T05:02:38;12.20;;;5.10;;
60610;SDS011;46439;51.164;13.572;2023-04-25T05:05:07;14.90;;;6.40;;
60610;SDS011;46439;51.164;13.572;2023-04-25T05:07:36;8.40;;;4.30;;
60610;SDS011;46439;51.164;13.572;2023-04-25T05:10:08;12.40;;;4.60;;
60610;SDS011;46439;51.164;13.572;2023-04-25T05:12:37;7.90;;;4.10;;
60610;SDS011;46439;51.164;13.572;2023-04-25T05:15:06;8.30;;;4.00;;
60610;SDS011;46439;51.164;13.572;2023-04-25T05:17:35;12.60;;;5.60;;
60610;SDS011;46439;51.164;13.572;2023-04-25T05:20:04;10.10;;;4.60;;
60610;SDS011;46439;51.164;13.572;2023-04-25T05:22:35;19.60;;;7.70;;
60610;SDS011;46439;51.164;13.572;2023-04-25T05:25:04;18.90;;;8.90;;
60610;SDS011;46439;51.164;13.572;2023-04-25T05:27:34;26.50;;;10.30;;
60610;SDS011;46439;51.164;13.572;2023-04-25T05:30:03;17.40;;;8.70;;
60610;SDS011;46439;51.164;13.572;2023-04-25T05:32:35;17.80;;;8.40;;
60610;SDS011;46439;51.164;13.572;2023-04-25T05:35:04;17.70;;;7.50;;
60610;SDS011;46439;51.164;13.572;2023-04-25T05:37:33;32.50;;;11.80;;
60610;SDS011;46439;51.164;13.572;2023-04-25T05:40:02;11.70;;;5.70;;
60610;SDS011;46439;51.164;13.572;2023-04-25T05:42:33;13.90;;;7.20;;
60610;SDS011;46439;51.164;13.572;2023-04-25T05:45:02;11.80;;;6.00;;
60610;SDS011;46439;51.164;13.572;2023-04-25T05:47:31;22.20;;;8.70;;
60610;SDS011;46439;51.164;13.572;2023-04-25T05:49:59;16.00;;;7.60;;
60610;SDS011;46439;51.164;13.572;2023-04-25T05:52:28;19.20;;;8.80;;
60610;SDS011;46439;51.164;13.572;2023-04-25T05:54:57;14.40;;;7.20;;
60610;SDS011;46439;51.164;13.572;2023-04-25T05:57:26;19.60;;;9.80;;
60610;SDS011;46439;51.164;13.572;2023-04-25T05:59:55;10.10;;;4.60;;
60610;SDS011;46439;51.164;13.572;2023-04-25T06:02:23;13.30;;;5.70;;
60610;SDS011;46439;51.164;13.572;2023-04-25T06:04:52;12.40;;;6.80;;
60610;SDS011;46439;51.164;13.572;2023-04-25T06:07:21;10.90;;;4.80;;
60610;SDS011;46439;51.164;13.572;2023-04-25T06:09:50;14.40;;;6.50;;
60610;SDS011;46439;51.164;13.572;2023-04-25T06:12:18;12.20;;;6.20;;
60610;SDS011;46439;51.164;13.572;2023-04-25T06:14:47;14.10;;;5.70;;
60610;SDS011;46439;51.164;13.572;2023-04-25T06:17:15;9.80;;;5.20;;
60610;SDS011;46439;51.164;13.572;2023-04-25T06:19:43;17.70;;;5.60;;
60610;SDS011;46439;51.164;13.572;2023-04-25T06:22:12;11.60;;;4.80;;
60610;SDS011;46439;51.164;13.572;2023-04-25T06:24:40;10.90;;;4.40;;
60610;SDS011;46439;51.164;13.572;2023-04-25T06:27:09;12.30;;;5.20;;
60610;SDS011;46439;51.164;13.572;2023-04-25T06:29:37;13.80;;;4.50;;
60610;SDS011;46439;51.164;13.572;2023-04-25T06:32:06;11.10;;;4.70;;
60610;SDS011;46439;51.164;13.572;2023-04-25T06:34:34;9.10;;;4.30;;
60610;SDS011;46439;51.164;13.572;2023-04-25T06:37:03;11.50;;;4.30;;
60610;SDS011;46439;51.164;13.572;2023-04-25T06:39:31;10.90;;;4.70;;
60610;SDS011;46439;51.164;13.572;2023-04-25T06:42:00;8.20;;;3.80;;
60610;SDS011;46439;51.164;13.572;2023-04-25T06:44:29;7.10;;;3.50;;
60610;SDS011;46439;51.164;13.572;2023-04-25T06:46:57;12.60;;;3.90;;
60610;SDS011;46439;51.164;13.572;2023-04-25T06:49:26;7.70;;;3.50;;
60610;SDS011;46439;51.164;13.572;2023-04-25T06:51:54;9.20;;;3.70;;
60610;SDS011;46439;51.164;13.572;2023-04-25T06:54:23;6.50;;;3.40;;
60610;SDS011;46439;51.164;13.572;2023-04-25T06:56:53;7.70;;;4.20;;
60610;SDS011;46439;51.164;13.572;2023-04-25T06:59:22;9.20;;;4.00;;
60610;SDS011;46439;51.164;13.572;2023-04-25T07:01:51;6.40;;;3.80;;
60610;SDS011;46439;51.164;13.572;2023-04-25T07:04:19;8.10;;;3.80;;
60610;SDS011;46439;51.164;13.572;2023-04-25T07:06:48;7.00;;;4.00;;
60610;SDS011;46439;51.164;13.572;2023-04-25T07:09:17;11.20;;;3.70;;
60610;SDS011;46439;51.164;13.572;2023-04-25T07:11:46;8.80;;;3.90;;
60610;SDS011;46439;51.164;13.572;2023-04-25T07:14:14;7.80;;;4.20;;
60610;SDS011;46439;51.164;13.572;2023-04-25T07:16:43;8.00;;;4.00;;
60610;SDS011;46439;51.164;13.572;2023-04-25T07:19:12;7.80;;;4.20;;
60610;SDS011;46439;51.164;13.572;2023-04-25T07:21:41;8.10;;;3.70;;
60610;SDS011;46439;51.164;13.572;2023-04-25T07:24:09;9.60;;;4.60;;
60610;SDS011;46439;51.164;13.572;2023-04-25T07:26:38;8.30;;;4.00;;
60610;SDS011;46439;51.164;13.572;2023-04-25T07:29:07;8.60;;;4.10;;
60610;SDS011;46439;51.164;13.572;2023-04-25T07:31:36;12.50;;;4.10;;
60610;SDS011;46439;51.164;13.572;2023-04-25T07:34:05;10.10;;;4.40;;
60610;SDS011;46439;51.164;13.572;2023-04-25T07:36:33;11.50;;;4.40;;
60610;SDS011;46439;51.164;13.572;2023-04-25T07:39:02;10.60;;;4.70;;
60610;SDS011;46439;51.164;13.572;2023-04-25T07:41:31;9.50;;;3.70;;
60610;SDS011;46439;51.164;13.572;2023-04-25T07:43:59;6.80;;;3.40;;
60610;SDS011;46439;51.164;13.572;2023-04-25T07:46:28;6.50;;;3.80;;
60610;SDS011;46439;51.164;13.572;2023-04-25T07:48:56;6.40;;;3.70;;
60610;SDS011;46439;51.164;13.572;2023-04-25T07:51:25;8.30;;;3.30;;
60610;SDS011;46439;51.164;13.572;2023-04-25T07:53:54;7.80;;;3.50;;
60610;SDS011;46439;51.164;13.572;2023-04-25T07:56:22;8.00;;;3.90;;
60610;SDS011;46439;51.164;13.572;2023-04-25T07:58:51;7.40;;;3.20;;
60610;SDS011;46439;51.164;13.572;2023-04-25T08:01:20;7.70;;;3.50;;
60610;SDS011;46439;51.164;13.572;2023-04-25T08:03:48;6.80;;;3.60;;
60610;SDS011;46439;51.164;13.572;2023-04-25T08:06:19;6.50;;;3.70;;
60610;SDS011;46439;51.164;13.572;2023-04-25T08:08:52;7.60;;;3.70;;
60610;SDS011;46439;51.164;13.572;2023-04-25T08:11:21;11.30;;;3.60;;
60610;SDS011;46439;51.164;13.572;2023-04-25T08:13:49;8.60;;;3.80;;
60610;SDS011;46439;51.164;13.572;2023-04-25T08:16:18;8.50;;;4.30;;
60610;SDS011;46439;51.164;13.572;2023-04-25T08:18:47;9.30;;;4.20;;
60610;SDS011;46439;51.164;13.572;2023-04-25T08:21:16;6.20;;;3.20;;
60610;SDS011;46439;51.164;13.572;2023-04-25T08:23:45;5.40;;;3.50;;
60610;SDS011;46439;51.164;13.572;2023-04-25T08:26:14;7.60;;;3.30;;
60610;SDS011;46439;51.164;13.572;2023-04-25T08:28:42;8.20;;;3.90;;
60610;SDS011;46439;51.164;13.572;2023-04-25T08:31:11;7.50;;;3.30;;
60610;SDS011;46439;51.164;13.572;2023-04-25T08:33:40;6.60;;;3.50;;
60610;SDS011;46439;51.164;13.572;2023-04-25T08:36:09;6.00;;;3.10;;
60610;SDS011;46439;51.164;13.572;2023-04-25T08:38:37;5.80;;;3.40;;
60610;SDS011;46439;51.164;13.572;2023-04-25T08:41:07;4.20;;;2.80;;
60610;SDS011;46439;51.164;13.572;2023-04-25T08:43:37;6.00;;;2.90;;
60610;SDS011;46439;51.164;13.572;2023-04-25T08:46:13;8.10;;;3.00;;
60610;SDS011;46439;51.164;13.572;2023-04-25T08:48:46;9.30;;;3.30;;
60610;SDS011;46439;51.164;13.572;2023-04-25T08:51:19;5.10;;;2.80;;
60610;SDS011;46439;51.164;13.572;2023-04-25T08:53:52;6.50;;;3.40;;
60610;SDS011;46439;51.164;13.572;2023-04-25T08:56:21;8.40;;;3.90;;
60610;SDS011;46439;51.164;13.572;2023-04-25T08:58:51;6.80;;;3.50;;
60610;SDS011;46439;51.164;13.572;2023-04-25T09:01:21;7.60;;;3.60;;
60610;SDS011;46439;51.164;13.572;2023-04-25T09:03:50;9.60;;;3.20;;
60610;SDS011;46439;51.164;13.572;2023-04-25T09:06:19;5.90;;;2.70;;
60610;SDS011;46439;51.164;13.572;2023-04-25T09:08:50;7.50;;;2.80;;
60610;SDS011;46439;51.164;13.572;2023-04-25T09:11:19;6.50;;;2.90;;
60610;SDS011;46439;51.164;13.572;2023-04-25T09:13:48;8.20;;;3.00;;
60610;SDS011;46439;51.164;13.572;2023-04-25T09:16:36;6.20;;;2.70;;
60610;SDS011;46439;51.164;13.572;2023-04-25T09:19:30;5.00;;;2.30;;
60610;SDS011;46439;51.164;13.572;2023-04-25T09:22:02;4.10;;;2.70;;
60610;SDS011;46439;51.164;13.572;2023-04-25T09:24:35;6.50;;;2.60;;
60610;SDS011;46439;51.164;13.572;2023-04-25T09:27:06;4.50;;;2.60;;
60610;SDS011;46439;51.164;13.572;2023-04-25T09:29:37;4.80;;;2.70;;
60610;SDS011;46439;51.164;13.572;2023-04-25T09:32:14;5.00;;;3.00;;
60610;SDS011;46439;51.164;13.572;2023-04-25T09:34:47;7.90;;;3.50;;
60610;SDS011;46439;51.164;13.572;2023-04-25T09:37:20;5.70;;;2.70;;
60610;SDS011;46439;51.164;13.572;2023-04-25T09:39:50;7.80;;;3.00;;
60610;SDS011;46439;51.164;13.572;2023-04-25T09:42:22;5.70;;;3.40;;
60610;SDS011;46439;51.164;13.572;2023-04-25T09:44:53;6.20;;;3.20;;
60610;SDS011;46439;51.164;13.572;2023-04-25T09:47:23;7.60;;;3.10;;
60610;SDS011;46439;51.164;13.572;2023-04-25T09:49:53;4.90;;;2.90;;
60610;SDS011;46439;51.164;13.572;2023-04-25T09:52:23;5.60;;;3.10;;
60610;SDS011;46439;51.164;13.572;2023-04-25T09:54:52;7.70;;;3.20;;
60610;SDS011;46439;51.164;13.572;2023-04-25T09:57:21;6.60;;;3.20;;
60610;SDS011;46439;51.164;13.572;2023-04-25T09:59:51;8.50;;;4.40;;
60610;SDS011;46439;51.164;13.572;2023-04-25T10:02:22;8.40;;;4.40;;
60610;SDS011;46439;51.164;13.572;2023-04-25T10:04:52;9.00;;;3.00;;
60610;SDS011;46439;51.164;13.572;2023-04-25T10:07:22;6.60;;;3.40;;
60610;SDS011;46439;51.164;13.572;2023-04-25T10:09:54;5.60;;;3.00;;
60610;SDS011;46439;51.164;13.572;2023-04-25T10:12:26;7.20;;;3.00;;
60610;SDS011;46439;51.164;13.572;2023-04-25T10:14:55;6.50;;;3.70;;
60610;SDS011;46439;51.164;13.572;2023-04-25T10:17:26;8.20;;;5.40;;
60610;SDS011;46439;51.164;13.572;2023-04-25T10:19:56;7.20;;;3.90;;
60610;SDS011;46439;51.164;13.572;2023-04-25T10:22:29;6.80;;;3.30;;
60610;SDS011;46439;51.164;13.572;2023-04-25T10:25:00;6.80;;;3.60;;
60610;SDS011;46439;51.164;13.572;2023-04-25T10:27:32;9.10;;;3.20;;
60610;SDS011;46439;51.164;13.572;2023-04-25T10:30:03;6.10;;;3.00;;
60610;SDS011;46439;51.164;13.572;2023-04-25T10:32:36;5.40;;;3.20;;
60610;SDS011;46439;51.164;13.572;2023-04-25T10:35:14;6.50;;;3.30;;
60610;SDS011;46439;51.164;13.572;2023-04-25T10:37:59;5.80;;;3.70;;
60610;SDS011;46439;51.164;13.572;2023-04-25T10:40:30;6.80;;;4.00;;
60610;SDS011;46439;51.164;13.572;2023-04-25T10:45:59;9.10;;;3.30;;
60610;SDS011;46439;51.164;13.572;2023-04-25T10:48:29;11.10;;;3.20;;
60610;SDS011;46439;51.164;13.572;2023-04-25T10:51:08;6.80;;;2.80;;
60610;SDS011;46439;51.164;13.572;2023-04-25T10:53:37;8.40;;;3.20;;
60610;SDS011;46439;51.164;13.572;2023-04-25T10:56:10;6.80;;;2.90;;
60610;SDS011;46439;51.164;13.572;2023-04-25T10:58:45;8.20;;;2.80;;
60610;SDS011;46439;51.164;13.572;2023-04-25T11:01:15;4.10;;;2.70;;
60610;SDS011;46439;51.164;13.572;2023-04-25T11:03:46;4.70;;;1.90;;
60610;SDS011;46439;51.164;13.572;2023-04-25T11:06:20;4.40;;;1.70;;
60610;SDS011;46439;51.164;13.572;2023-04-25T11:08:56;3.80;;;1.60;;
60610;SDS011;46439;51.164;13.572;2023-04-25T11:11:28;4.00;;;1.40;;
60610;SDS011;46439;51.164;13.572;2023-04-25T11:13:57;3.70;;;1.60;;
60610;SDS011;46439;51.164;13.572;2023-04-25T11:16:26;4.90;;;1.70;;
60610;SDS011;46439;51.164;13.572;2023-04-25T11:18:56;5.80;;;1.90;;
60610;SDS011;46439;51.164;13.572;2023-04-25T11:21:26;3.60;;;1.80;;
60610;SDS011;46439;51.164;13.572;2023-04-25T11:23:55;4.10;;;1.80;;
60610;SDS011;46439;51.164;13.572;2023-04-25T11:26:25;4.90;;;1.60;;
60610;SDS011;46439;51.164;13.572;2023-04-25T11:28:58;6.60;;;2.10;;
60610;SDS011;46439;51.164;13.572;2023-04-25T11:31:27;3.20;;;1.80;;
60610;SDS011;46439;51.164;13.572;2023-04-25T11:33:57;4.50;;;1.90;;
60610;SDS011;46439;51.164;13.572;2023-04-25T11:36:26;5.00;;;2.10;;
60610;SDS011;46439;51.164;13.572;2023-04-25T11:38:55;3.00;;;1.70;;
60610;SDS011;46439;51.164;13.572;2023-04-25T11:41:24;5.20;;;2.20;;
60610;SDS011;46439;51.164;13.572;2023-04-25T11:43:54;6.00;;;2.20;;
60610;SDS011;46439;51.164;13.572;2023-04-25T11:46:23;5.70;;;2.50;;
60610;SDS011;46439;51.164;13.572;2023-04-25T11:48:52;8.60;;;2.30;;
60610;SDS011;46439;51.164;13.572;2023-04-25T11:51:24;5.70;;;2.10;;
60610;SDS011;46439;51.164;13.572;2023-04-25T11:53:52;6.60;;;2.20;;
60610;SDS011;46439;51.164;13.572;2023-04-25T11:56:21;5.50;;;2.30;;
60610;SDS011;46439;51.164;13.572;2023-04-25T11:58:57;8.40;;;3.00;;
60610;SDS011;46439;51.164;13.572;2023-04-25T12:01:28;7.20;;;2.50;;
60610;SDS011;46439;51.164;13.572;2023-04-25T12:04:09;9.30;;;2.70;;
60610;SDS011;46439;51.164;13.572;2023-04-25T12:06:39;7.20;;;2.40;;
60610;SDS011;46439;51.164;13.572;2023-04-25T12:09:09;13.50;;;3.20;;
60610;SDS011;46439;51.164;13.572;2023-04-25T12:11:43;9.20;;;2.90;;
60610;SDS011;46439;51.164;13.572;2023-04-25T12:14:20;12.20;;;2.80;;
60610;SDS011;46439;51.164;13.572;2023-04-25T12:16:54;8.90;;;2.70;;
60610;SDS011;46439;51.164;13.572;2023-04-25T12:19:31;12.80;;;2.90;;
60610;SDS011;46439;51.164;13.572;2023-04-25T12:22:01;11.30;;;3.50;;
60610;SDS011;46439;51.164;13.572;2023-04-25T12:24:33;8.10;;;2.60;;
60610;SDS011;46439;51.164;13.572;2023-04-25T12:27:03;12.30;;;2.70;;
60610;SDS011;46439;51.164;13.572;2023-04-25T12:29:34;10.90;;;3.10;;
60610;SDS011;46439;51.164;13.572;2023-04-25T12:32:03;9.10;;;3.20;;
60610;SDS011;46439;51.164;13.572;2023-04-25T12:34:32;9.20;;;3.10;;
60610;SDS011;46439;51.164;13.572;2023-04-25T12:37:02;11.20;;;3.20;;
60610;SDS011;46439;51.164;13.572;2023-04-25T12:39:31;7.70;;;3.10;;
60610;SDS011;46439;51.164;13.572;2023-04-25T12:42:00;11.70;;;3.20;;
60610;SDS011;46439;51.164;13.572;2023-04-25T12:44:29;11.00;;;3.00;;
60610;SDS011;46439;51.164;13.572;2023-04-25T12:46:58;11.30;;;3.40;;
60610;SDS011;46439;51.164;13.572;2023-04-25T12:49:27;11.00;;;3.50;;
60610;SDS011;46439;51.164;13.572;2023-04-25T12:51:55;10.90;;;3.40;;
60610;SDS011;46439;51.164;13.572;2023-04-25T12:54:24;10.30;;;3.60;;
60610;SDS011;46439;51.164;13.572;2023-04-25T12:56:53;9.20;;;3.40;;
60610;SDS011;46439;51.164;13.572;2023-04-25T12:59:23;15.20;;;3.40;;
60610;SDS011;46439;51.164;13.572;2023-04-25T13:01:52;10.00;;;3.40;;
60610;SDS011;46439;51.164;13.572;2023-04-25T13:04:21;11.70;;;3.30;;
60610;SDS011;46439;51.164;13.572;2023-04-25T13:06:50;10.90;;;3.40;;
60610;SDS011;46439;51.164;13.572;2023-04-25T13:09:18;15.10;;;3.50;;
60610;SDS011;46439;51.164;13.572;2023-04-25T13:11:47;8.40;;;3.50;;
60610;SDS011;46439;51.164;13.572;2023-04-25T13:14:16;10.50;;;3.10;;
60610;SDS011;46439;51.164;13.572;2023-04-25T13:16:45;7.30;;;3.20;;
60610;SDS011;46439;51.164;13.572;2023-04-25T13:19:13;11.60;;;3.60;;
60610;SDS011;46439;51.164;13.572;2023-04-25T13:21:42;9.10;;;2.90;;
60610;SDS011;46439;51.164;13.572;2023-04-25T13:24:10;7.60;;;3.00;;
60610;SDS011;46439;51.164;13.572;2023-04-25T13:26:39;7.20;;;3.00;;
60610;SDS011;46439;51.164;13.572;2023-04-25T13:29:08;8.90;;;4.10;;
60610;SDS011;46439;51.164;13.572;2023-04-25T13:31:36;9.40;;;3.70;;
60610;SDS011;46439;51.164;13.572;2023-04-25T13:34:05;12.30;;;3.50;;
60610;SDS011;46439;51.164;13.572;2023-04-25T13:36:34;11.10;;;3.40;;
60610;SDS011;46439;51.164;13.572;2023-04-25T13:39:03;9.40;;;3.10;;
60610;SDS011;46439;51.164;13.572;2023-04-25T13:41:32;12.40;;;3.30;;
60610;SDS011;46439;51.164;13.572;2023-04-25T13:44:01;8.40;;;2.50;;
60610;SDS011;46439;51.164;13.572;2023-04-25T13:46:30;12.20;;;3.40;;
60610;SDS011;46439;51.164;13.572;2023-04-25T13:48:59;16.10;;;5.30;;
60610;SDS011;46439;51.164;13.572;2023-04-25T13:51:27;13.40;;;3.80;;
60610;SDS011;46439;51.164;13.572;2023-04-25T13:53:57;11.20;;;3.40;;
60610;SDS011;46439;51.164;13.572;2023-04-25T13:56:25;10.90;;;3.20;;
60610;SDS011;46439;51.164;13.572;2023-04-25T13:58:54;11.10;;;3.90;;
60610;SDS011;46439;51.164;13.572;2023-04-25T14:01:23;8.90;;;3.70;;
60610;SDS011;46439;51.164;13.572;2023-04-25T14:03:54;9.70;;;3.70;;
60610;SDS011;46439;51.164;13.572;2023-04-25T14:06:22;10.90;;;3.30;;
60610;SDS011;46439;51.164;13.572;2023-04-25T14:08:52;13.80;;;3.40;;
60610;SDS011;46439;51.164;13.572;2023-04-25T14:11:21;8.90;;;3.00;;
60610;SDS011;46439;51.164;13.572;2023-04-25T14:13:50;13.10;;;3.70;;
60610;SDS011;46439;51.164;13.572;2023-04-25T14:16:18;9.50;;;3.30;;
60610;SDS011;46439;51.164;13.572;2023-04-25T14:18:49;12.70;;;3.30;;
60610;SDS011;46439;51.164;13.572;2023-04-25T14:21:18;8.40;;;3.10;;
60610;SDS011;46439;51.164;13.572;2023-04-25T14:23:47;10.50;;;3.00;;
60610;SDS011;46439;51.164;13.572;2023-04-25T14:26:16;8.50;;;2.70;;
60610;SDS011;46439;51.164;13.572;2023-04-25T14:28:45;11.50;;;3.30;;
60610;SDS011;46439;51.164;13.572;2023-04-25T14:31:13;9.60;;;3.20;;
60610;SDS011;46439;51.164;13.572;2023-04-25T14:33:42;12.60;;;3.00;;
60610;SDS011;46439;51.164;13.572;2023-04-25T14:36:12;10.70;;;2.90;;
60610;SDS011;46439;51.164;13.572;2023-04-25T14:38:41;10.10;;;3.30;;
60610;SDS011;46439;51.164;13.572;2023-04-25T14:41:10;11.80;;;2.80;;
60610;SDS011;46439;51.164;13.572;2023-04-25T14:43:39;11.10;;;2.90;;
60610;SDS011;46439;51.164;13.572;2023-04-25T14:46:07;7.30;;;2.40;;
60610;SDS011;46439;51.164;13.572;2023-04-25T14:48:37;10.10;;;2.60;;